NMSU Main Campus

2021-04-18 21:55:00

  • imperial
Date Time Air Temperature Relative Humidity Dewpoint Windchill Heat Index Wind Speed Wind Dir. Rain Solar Radiation
2m 2m 3m 3m
US/Mountain F % F F F MPH deg in MJ/m^2
max avg avg
2021-04-17 22:00:00 53.4 38.0 28.5 53.4 53.4 5.6 13.7 7.7 125.6 121.0 0.00 0.0000000
2021-04-17 22:05:00 53.4 40.5 29.9 53.4 53.4 6.2 8.1 6.1 90.5 122.4 0.00 0.0000000
2021-04-17 22:10:00 53.1 39.5 29.0 53.1 53.1 3.5 10.8 6.2 129.9 124.6 0.00 0.0000000
2021-04-17 22:15:00 53.1 39.3 29.0 53.1 53.1 1.0 8.8 4.1 82.0 100.9 0.00 0.0000000
2021-04-17 22:20:00 53.4 38.2 28.5 53.4 53.4 3.7 7.4 3.5 13.9 57.3 0.00 0.0000000
2021-04-17 22:25:00 53.4 40.3 29.9 53.4 53.4 3.5 4.9 2.5 76.0 77.2 0.00 0.0000000
2021-04-17 22:30:00 53.4 38.9 28.9 53.4 53.4 4.0 4.7 2.1 99.3 109.6 0.00 0.0000000
2021-04-17 22:35:00 53.9 38.1 28.9 53.9 53.9 3.0 7.6 3.8 123.1 129.7 0.00 0.0000000
2021-04-17 22:40:00 53.8 39.2 29.6 53.8 53.8 3.3 6.3 3.7 111.2 117.8 0.00 0.0000000
2021-04-17 22:45:00 53.9 38.7 29.2 53.9 53.9 2.1 3.3 2.0 122.6 115.8 0.00 0.0000000
2021-04-17 22:50:00 53.4 38.6 28.8 53.4 53.4 4.0 4.7 2.3 97.5 136.5 0.00 0.0000000
2021-04-17 22:55:00 54.1 38.7 29.4 54.1 54.1 5.8 6.3 4.5 110.5 106.4 0.00 0.0000000
2021-04-17 23:00:00 53.4 39.1 29.2 53.4 53.4 2.1 6.0 3.2 78.1 118.4 0.00 0.0000000
2021-04-17 23:05:00 53.3 41.2 30.3 53.3 53.3 1.7 2.6 1.0 55.9 125.7 0.00 0.0000000
2021-04-17 23:10:00 53.6 39.3 29.5 53.6 53.6 5.3 9.4 3.9 105.7 98.7 0.00 0.0000000
2021-04-17 23:15:00 53.4 38.1 28.5 53.4 53.4 7.4 9.4 7.0 114.5 107.4 0.00 0.0000000
2021-04-17 23:20:00 53.1 39.9 29.4 53.1 53.1 2.4 6.5 4.6 98.4 98.9 0.00 0.0000000
2021-04-17 23:25:00 52.8 38.7 28.3 52.8 52.8 3.5 7.2 4.2 108.6 117.8 0.00 0.0000000
2021-04-17 23:30:00 52.8 39.1 28.5 52.8 52.8 3.3 6.2 3.5 132.3 114.6 0.00 0.0000000
2021-04-17 23:35:00 52.6 40.1 29.1 52.6 52.6 0.0 4.6 1.9 170.4 163.2 0.00 0.0000000
2021-04-17 23:40:00 51.9 39.1 27.8 51.9 51.9 5.6 6.5 3.1 124.6 165.1 0.00 0.0000000
2021-04-17 23:45:00 52.1 40.0 28.5 52.1 52.1 11.9 11.9 4.8 108.9 124.0 0.00 0.0000000
2021-04-17 23:50:00 52.0 39.6 28.2 52.0 52.0 9.6 11.3 7.8 102.1 112.8 0.00 0.0000000
2021-04-17 23:55:00 52.0 39.5 28.1 52.0 52.0 6.5 9.2 6.0 98.8 112.8 0.00 0.0000000
2021-04-18 00:00:00 52.5 38.4 27.8 52.5 52.5 6.3 8.0 5.6 150.6 120.3 0.00 0.0000000
2021-04-18 00:05:00 52.4 39.9 28.7 52.4 52.4 4.4 8.3 4.8 99.9 112.2 0.00 0.0000000
2021-04-18 00:10:00 52.5 38.5 27.9 52.5 52.5 12.1 14.9 6.7 111.6 110.8 0.00 0.0000000
2021-04-18 00:15:00 52.3 41.3 29.5 52.3 52.3 4.6 10.3 7.1 106.3 109.2 0.00 0.0000000
2021-04-18 00:20:00 52.2 46.5 32.3 52.2 52.2 3.1 8.7 5.5 65.5 104.8 0.00 0.0000000
2021-04-18 00:25:00 51.5 46.5 31.7 51.5 51.5 2.8 7.2 4.4 33.7 87.2 0.00 0.0000000
2021-04-18 00:30:00 51.5 45.1 30.9 51.5 51.5 5.6 8.1 4.2 109.0 88.8 0.00 0.0000000
2021-04-18 00:35:00 51.5 45.9 31.3 51.5 51.5 4.0 10.6 4.8 107.9 97.6 0.00 0.0000000
2021-04-18 00:40:00 51.7 42.9 29.8 51.7 51.7 9.0 11.0 6.9 104.5 117.0 0.00 0.0000000
2021-04-18 00:45:00 51.7 40.9 28.7 51.7 51.7 6.0 13.1 6.6 125.9 92.1 0.00 0.0000000
2021-04-18 00:50:00 51.7 40.0 28.2 51.7 51.7 7.6 7.6 3.2 111.6 78.7 0.00 0.0000000
2021-04-18 00:55:00 51.7 40.4 28.3 51.7 51.7 3.8 10.1 4.4 61.5 83.7 0.00 0.0000000
2021-04-18 01:00:00 52.1 39.1 27.9 52.1 52.1 4.2 8.5 4.3 101.3 78.7 0.00 0.0000000
2021-04-18 01:05:00 52.1 39.2 27.9 52.1 52.1 2.2 9.6 4.1 27.0 61.3 0.00 0.0000000
2021-04-18 01:10:00 52.6 39.0 28.3 52.6 52.6 4.9 5.3 3.7 78.5 54.7 0.00 0.0000000
2021-04-18 01:15:00 52.8 38.7 28.3 52.8 52.8 4.6 6.5 3.7 84.2 69.0 0.00 0.0000000
2021-04-18 01:20:00 52.7 38.7 28.3 52.7 52.7 2.8 3.7 1.8 92.3 80.7 0.00 0.0000000
2021-04-18 01:25:00 52.2 38.4 27.6 52.2 52.2 3.5 4.6 3.3 147.8 144.2 0.00 0.0000000
2021-04-18 01:30:00 51.7 38.5 27.3 51.7 51.7 5.3 6.0 3.6 115.8 137.4 0.00 0.0000000
2021-04-18 01:35:00 51.8 37.7 26.8 51.8 51.8 5.6 6.2 4.1 99.9 132.0 0.00 0.0000000
2021-04-18 01:40:00 51.3 39.2 27.3 51.3 51.3 3.3 11.0 6.0 91.0 115.9 0.00 0.0000000
2021-04-18 01:45:00 51.4 38.7 27.1 51.4 51.4 6.0 13.1 5.0 106.7 80.1 0.00 0.0000000
2021-04-18 01:50:00 51.1 39.3 27.2 51.1 51.1 3.0 9.2 5.3 58.5 91.9 0.00 0.0000000
2021-04-18 01:55:00 51.0 39.0 26.9 51.0 51.0 5.3 8.3 5.2 109.8 105.4 0.00 0.0000000
2021-04-18 02:00:00 51.0 39.1 27.0 51.0 51.0 3.7 6.2 3.3 119.2 100.5 0.00 0.0000000
2021-04-18 02:05:00 50.6 41.1 27.9 50.6 50.6 3.8 6.0 3.3 63.2 94.6 0.00 0.0000000
2021-04-18 02:10:00 50.7 38.4 26.3 50.7 50.7 5.6 5.6 2.8 118.1 77.1 0.00 0.0000000
2021-04-18 02:15:00 50.8 38.8 26.6 50.8 50.8 5.8 9.0 5.3 94.1 105.0 0.00 0.0000000
2021-04-18 02:20:00 51.0 39.4 27.1 51.0 51.0 1.2 9.0 4.4 26.0 91.5 0.00 0.0000000
2021-04-18 02:25:00 51.0 39.4 27.2 51.0 51.0 0.0 1.7 0.1 29.6 48.0 0.00 0.0000000
2021-04-18 02:30:00 51.1 41.9 28.8 51.1 51.1 1.7 2.1 0.6 7.6 43.3 0.00 0.0000000
2021-04-18 02:35:00 50.8 40.2 27.4 50.8 50.8 1.0 3.7 1.0 142.8 306.3 0.00 0.0000000
2021-04-18 02:40:00 51.1 37.3 25.9 51.1 51.1 0.0 3.8 1.7 258.4 59.2 0.00 0.0000000
2021-04-18 02:45:00 51.1 39.5 27.3 51.1 51.1 3.5 5.1 1.6 54.8 59.3 0.00 0.0000000
2021-04-18 02:50:00 50.9 38.1 26.2 50.9 50.9 1.9 4.6 2.1 141.0 93.2 0.00 0.0000000
2021-04-18 02:55:00 50.5 39.4 26.7 50.5 50.5 3.5 5.1 3.4 123.1 137.3 0.00 0.0000000
2021-04-18 03:00:00 50.3 43.5 28.9 50.3 50.3 4.6 8.7 5.2 118.8 114.9 0.00 0.0000000
2021-04-18 03:05:00 49.5 47.0 30.1 49.5 49.5 2.8 5.8 3.5 163.6 131.6 0.00 0.0000000
2021-04-18 03:10:00 48.7 49.5 30.6 47.6 48.7 3.7 6.2 3.0 122.9 134.7 0.00 0.0000000
2021-04-18 03:15:00 48.7 50.0 30.9 47.2 48.7 4.2 5.5 3.7 111.0 130.0 0.00 0.0000000
2021-04-18 03:20:00 48.6 50.5 31.0 46.5 48.6 5.1 5.8 3.4 159.2 133.6 0.00 0.0000000
2021-04-18 03:25:00 48.5 52.5 31.9 47.3 48.5 3.7 8.5 4.5 141.8 128.7 0.00 0.0000000
2021-04-18 03:30:00 48.2 52.6 31.7 48.2 48.2 1.3 5.6 3.0 119.4 134.7 0.00 0.0000000
2021-04-18 03:35:00 48.0 54.0 32.2 48.0 48.0 1.2 3.7 1.5 209.1 175.2 0.00 0.0000000
2021-04-18 03:40:00 47.8 53.7 31.8 47.8 47.8 1.9 4.9 2.5 160.8 138.6 0.00 0.0000000
2021-04-18 03:45:00 47.6 54.6 32.0 47.6 47.6 0.8 4.7 2.7 143.1 139.6 0.00 0.0000000
2021-04-18 03:50:00 47.5 56.0 32.6 46.2 47.5 3.7 4.9 2.4 130.6 127.4 0.00 0.0000000
2021-04-18 03:55:00 47.6 55.8 32.6 45.4 47.6 4.9 6.5 4.6 103.9 117.5 0.00 0.0000000
2021-04-18 04:00:00 47.4 56.7 32.8 44.2 47.4 6.7 9.7 7.2 132.9 123.9 0.00 0.0000000
2021-04-18 04:05:00 47.2 57.6 33.1 45.6 47.2 4.0 8.5 5.6 95.7 121.7 0.00 0.0000000
2021-04-18 04:10:00 47.2 56.8 32.7 45.8 47.2 3.8 7.1 4.7 121.3 123.5 0.00 0.0000000
2021-04-18 04:15:00 47.5 56.3 32.7 47.5 47.5 2.6 4.9 3.3 206.8 127.8 0.00 0.0000000
2021-04-18 04:20:00 47.7 54.8 32.2 46.4 47.7 3.7 5.8 3.4 132.3 124.5 0.00 0.0000020
2021-04-18 04:25:00 47.9 53.8 32.0 47.9 47.9 2.8 4.4 3.2 152.1 146.3 0.00 0.0000000
2021-04-18 04:30:00 48.7 54.1 32.8 47.4 48.7 3.8 5.3 3.0 112.5 116.1 0.00 0.0000000
2021-04-18 04:35:00 49.0 51.9 32.1 46.7 49.0 5.6 5.8 3.9 138.4 114.0 0.00 0.0000000
2021-04-18 04:40:00 49.3 53.3 33.0 48.3 49.3 3.7 5.3 3.1 48.3 91.7 0.00 0.0000000
2021-04-18 04:45:00 49.1 53.0 32.8 49.1 49.1 1.3 5.8 2.8 22.9 52.5 0.00 0.0000000
2021-04-18 04:50:00 49.1 52.1 32.3 49.1 49.1 2.6 2.6 1.5 130.1 79.7 0.00 0.0000000
2021-04-18 04:55:00 49.1 50.1 31.3 48.1 49.1 3.7 5.5 3.5 118.1 91.0 0.00 0.0000000
2021-04-18 05:00:00 49.2 50.3 31.5 47.3 49.2 4.9 6.0 3.9 131.7 117.5 0.00 0.0000000
2021-04-18 05:05:00 48.3 51.7 31.3 47.1 48.3 3.7 8.3 5.0 116.0 115.5 0.00 0.0000000
2021-04-18 05:10:00 47.9 52.6 31.4 45.6 47.9 5.3 9.0 6.4 134.6 119.5 0.00 0.0000000
2021-04-18 05:15:00 47.9 51.6 30.9 45.0 47.9 6.3 9.9 7.3 93.0 109.6 0.00 0.0000000
2021-04-18 05:20:00 47.9 52.0 31.1 45.5 47.9 5.5 10.1 5.8 95.6 116.8 0.00 0.0000000
2021-04-18 05:25:00 47.9 51.9 31.0 44.7 47.9 6.7 8.1 6.1 117.8 118.2 0.00 0.0000000
2021-04-18 05:30:00 47.8 51.9 31.0 45.9 47.8 4.6 8.8 6.2 114.6 113.7 0.00 0.0000000
2021-04-18 05:35:00 47.9 52.3 31.3 46.1 47.9 4.4 8.0 4.9 123.2 106.9 0.00 0.0000000
2021-04-18 05:40:00 48.0 52.0 31.2 48.0 48.0 2.4 7.1 4.7 94.7 109.8 0.00 0.0000000
2021-04-18 05:45:00 47.9 52.2 31.2 44.7 47.9 6.9 12.1 7.3 100.3 105.0 0.00 0.0000000
2021-04-18 05:50:00 47.9 52.4 31.3 45.3 47.9 5.8 12.1 7.7 140.1 111.3 0.00 0.0000000
2021-04-18 05:55:00 47.8 52.0 31.0 44.4 47.8 7.2 8.5 6.1 120.5 105.9 0.00 0.0000000
2021-04-18 06:00:00 48.0 52.6 31.5 48.0 48.0 2.6 6.9 4.2 98.8 102.6 0.00 0.0000000
2021-04-18 06:05:00 48.3 52.2 31.6 48.3 48.3 3.0 3.7 2.1 128.7 72.5 0.00 0.0000000
2021-04-18 06:10:00 48.5 51.7 31.6 47.6 48.5 3.5 5.3 3.2 114.6 79.9 0.00 0.0000000
2021-04-18 06:15:00 48.8 51.0 31.5 47.9 48.8 3.5 7.8 4.8 96.2 114.3 0.00 0.0000020
2021-04-18 06:20:00 49.0 50.6 31.5 48.0 49.0 3.7 4.6 3.1 102.2 102.3 0.00 0.0000402
2021-04-18 06:25:00 49.2 49.6 31.1 49.2 49.2 0.0 3.7 1.9 147.3 117.9 0.00 0.0001006
2021-04-18 06:30:00 49.0 50.7 31.5 49.0 49.0 1.9 2.6 0.3 119.0 121.6 0.00 0.0002615
2021-04-18 06:35:00 49.0 51.1 31.7 49.0 49.0 1.7 4.7 2.6 88.8 107.8 0.00 0.0005330
2021-04-18 06:40:00 48.5 51.7 31.5 46.1 48.5 5.6 10.3 5.7 98.7 103.9 0.00 0.0009734
2021-04-18 06:45:00 47.8 52.8 31.4 44.0 47.8 8.1 10.8 7.2 113.0 109.1 0.00 0.0016934
2021-04-18 06:50:00 47.7 53.2 31.5 46.7 47.7 3.5 9.0 5.3 73.6 104.6 0.00 0.0024093
2021-04-18 06:55:00 47.9 52.3 31.2 45.3 47.9 5.6 5.6 2.8 40.0 80.0 0.00 0.0036039
2021-04-18 07:00:00 47.7 52.3 31.0 46.4 47.7 3.7 5.3 2.1 123.4 78.3 0.00 0.0049614
2021-04-18 07:05:00 47.8 52.9 31.5 47.8 47.8 2.2 3.5 1.7 103.3 95.4 0.00 0.0063550
2021-04-18 07:10:00 47.6 53.0 31.3 47.6 47.6 2.8 2.8 1.3 213.2 126.2 0.00 0.0057074
2021-04-18 07:15:00 47.8 52.4 31.2 47.8 47.8 1.3 5.8 3.2 129.9 189.5 0.00 0.0073868
2021-04-18 07:20:00 48.2 52.6 31.7 47.5 48.2 3.1 3.8 1.9 89.9 125.2 0.00 0.0120163
2021-04-18 07:25:00 48.2 52.2 31.5 48.2 48.2 1.9 4.2 1.1 272.0 95.2 0.00 0.0114434
2021-04-18 07:30:00 48.3 52.0 31.5 48.3 48.3 0.0 1.7 0.3 262.7 37.6 0.00 0.0128354
2021-04-18 07:35:00 48.4 52.0 31.6 48.4 48.4 1.9 2.8 1.0 123.6 150.5 0.00 0.0125537
2021-04-18 07:40:00 48.9 52.1 32.1 48.9 48.9 0.0 3.8 1.1 110.6 97.0 0.00 0.0170024
2021-04-18 07:45:00 49.2 50.6 31.6 48.0 49.2 3.8 4.7 2.7 96.9 113.6 0.00 0.0171995
2021-04-18 07:50:00 49.4 51.2 32.1 46.3 49.4 7.2 7.2 3.1 111.8 94.2 0.00 0.0196709
2021-04-18 07:55:00 48.8 51.6 31.7 46.5 48.8 5.5 8.7 5.9 145.7 96.5 0.00 0.0214244
2021-04-18 08:00:00 48.8 51.4 31.7 44.9 48.8 9.0 10.1 6.6 119.0 109.7 0.00 0.0227010
2021-04-18 08:05:00 49.1 51.1 31.8 49.1 49.1 1.3 9.6 5.8 68.0 97.5 0.00 0.0244199
2021-04-18 08:10:00 49.4 50.6 31.9 48.5 49.4 3.7 9.7 4.5 100.6 93.4 0.00 0.0292864
2021-04-18 08:15:00 49.5 50.3 31.8 46.3 49.5 7.6 8.5 6.2 113.5 109.5 0.00 0.0328213
2021-04-18 08:20:00 49.4 51.5 32.3 47.5 49.4 5.1 8.7 5.2 107.7 102.3 0.00 0.0366096
2021-04-18 08:25:00 49.5 49.9 31.6 47.8 49.5 4.7 8.8 4.5 102.0 90.6 0.00 0.0307317
2021-04-18 08:30:00 49.6 49.3 31.4 47.9 49.6 4.7 5.6 3.8 94.7 95.1 0.00 0.0397606
2021-04-18 08:35:00 49.9 48.5 31.3 45.8 49.9 10.5 10.5 5.5 94.5 105.7 0.00 0.0431308
2021-04-18 08:40:00 49.5 49.9 31.6 47.2 49.5 5.6 11.9 7.1 111.6 108.1 0.00 0.0460268
2021-04-18 08:45:00 49.8 49.2 31.5 47.5 49.8 5.8 12.6 7.5 121.4 110.0 0.00 0.0517093
2021-04-18 08:50:00 50.0 49.0 31.6 46.7 50.0 8.0 12.8 7.6 94.5 114.9 0.00 0.0520632
2021-04-18 08:55:00 50.0 48.5 31.4 50.0 50.0 8.5 11.2 7.1 103.1 108.0 0.00 0.0501129
2021-04-18 09:00:00 49.7 48.9 31.3 46.2 49.7 8.5 11.7 7.9 107.3 104.1 0.00 0.0502996
2021-04-18 09:05:00 49.7 48.8 31.3 46.1 49.7 8.7 13.3 8.2 98.1 101.7 0.00 0.0511444
2021-04-18 09:10:00 50.0 48.7 31.4 50.0 50.0 7.2 10.3 6.3 106.4 105.3 0.00 0.0504167
2021-04-18 09:15:00 50.2 48.8 31.7 50.2 50.2 4.2 8.7 6.1 74.0 102.5 0.00 0.0533684
2021-04-18 09:20:00 50.6 47.7 31.4 50.6 50.6 6.3 9.9 5.7 87.4 103.6 0.00 0.0559982
2021-04-18 09:25:00 50.6 47.7 31.5 50.6 50.6 7.6 11.5 8.0 112.5 104.4 0.00 0.0628215
2021-04-18 09:30:00 50.5 47.5 31.2 50.5 50.5 6.7 12.2 7.8 108.4 101.1 0.00 0.0698791
2021-04-18 09:35:00 51.2 45.2 30.7 51.2 51.2 9.7 9.7 6.0 103.3 102.7 0.00 0.0808095
2021-04-18 09:40:00 51.9 45.0 31.2 51.9 51.9 3.5 10.5 6.9 73.6 108.0 0.00 0.0793883
2021-04-18 09:45:00 52.5 44.9 31.7 52.5 52.5 6.2 9.6 5.6 106.7 99.0 0.00 0.0778062
2021-04-18 09:50:00 52.6 45.1 31.9 52.6 52.6 2.2 9.4 4.3 84.6 70.8 0.00 0.0723438
2021-04-18 09:55:00 52.8 43.9 31.4 52.8 52.8 3.3 6.5 3.6 65.5 43.4 0.00 0.0772853
2021-04-18 10:00:00 52.7 44.4 31.6 52.7 52.7 3.8 5.3 2.7 97.2 73.2 0.00 0.0787264
2021-04-18 10:05:00 52.5 44.3 31.4 52.5 52.5 4.0 8.1 4.5 90.2 117.2 0.00 0.0837781
2021-04-18 10:10:00 52.7 43.8 31.3 52.7 52.7 4.0 8.7 5.7 113.1 107.6 0.00 0.0988755
2021-04-18 10:15:00 53.6 42.6 31.4 53.6 53.6 4.7 5.6 2.8 30.5 80.6 0.00 0.1010572
2021-04-18 10:20:00 53.1 43.2 31.3 53.1 53.1 3.7 7.8 5.2 104.5 93.3 0.00 0.0983982
2021-04-18 10:25:00 53.3 43.6 31.7 53.3 53.3 7.4 11.2 6.5 146.5 103.3 0.00 0.1704161
2021-04-18 10:30:00 53.8 43.2 31.9 53.8 53.8 5.1 8.8 6.1 120.9 105.0 0.00 0.1953268
2021-04-18 10:35:00 54.9 42.8 32.7 54.9 54.9 3.3 9.7 6.3 112.9 110.1 0.00 0.2946108
2021-04-18 10:40:00 55.4 40.5 31.8 55.4 55.4 7.4 9.2 5.8 125.6 121.5 0.00 0.2603119
2021-04-18 10:45:00 54.7 40.8 31.3 54.7 54.7 6.0 9.0 5.6 103.0 123.1 0.00 0.1658763
2021-04-18 10:50:00 54.0 42.5 31.7 54.0 54.0 7.1 9.2 6.2 109.8 122.4 0.00 0.1341557
2021-04-18 10:55:00 53.1 42.4 30.8 53.1 53.1 6.3 10.5 6.3 145.3 123.1 0.00 0.1136995
2021-04-18 11:00:00 53.7 42.1 31.2 53.7 53.7 6.3 9.7 5.8 90.8 125.8 0.00 0.0879220
2021-04-18 11:05:00 52.8 44.5 31.7 52.8 52.8 4.7 11.5 7.3 114.7 114.2 0.00 0.0851598
2021-04-18 11:10:00 53.1 43.6 31.5 53.1 53.1 8.3 12.1 7.0 133.5 116.8 0.00 0.1430839
2021-04-18 11:15:00 53.1 43.8 31.6 53.1 53.1 7.2 9.9 7.3 99.2 111.6 0.00 0.1635831
2021-04-18 11:20:00 53.0 43.6 31.4 53.0 53.0 7.6 10.1 6.4 113.5 109.7 0.00 0.0872043
2021-04-18 11:25:00 53.3 44.0 31.9 53.3 53.3 5.3 11.2 8.3 67.2 117.1 0.00 0.1769254
2021-04-18 11:30:00 54.6 43.0 32.6 54.6 54.6 4.6 9.7 5.9 107.3 102.9 0.00 0.2339796
2021-04-18 11:35:00 56.0 40.4 32.3 56.0 56.0 8.0 11.2 7.3 128.2 108.1 0.00 0.3245400
2021-04-18 11:40:00 55.7 41.4 32.6 55.7 55.7 6.9 9.0 6.3 66.9 79.0 0.00 0.2687871
2021-04-18 11:45:00 54.9 42.1 32.3 54.9 54.9 5.6 10.1 5.5 88.9 85.0 0.00 0.1511667
2021-04-18 11:50:00 54.4 42.9 32.3 54.4 54.4 4.6 10.8 6.4 103.6 97.5 0.00 0.1198621
2021-04-18 11:55:00 55.0 42.4 32.5 55.0 55.0 5.3 10.1 6.2 108.6 105.5 0.00 0.1199362
2021-04-18 12:00:00 54.1 43.4 32.4 54.1 54.1 7.4 10.3 6.9 103.5 97.8 0.00 0.1248476
2021-04-18 12:05:00 53.9 43.5 32.3 53.9 53.9 8.1 12.8 8.4 127.5 100.2 0.00 0.1340465
2021-04-18 12:10:00 54.4 42.3 32.0 54.4 54.4 8.8 9.7 6.7 115.9 111.0 0.00 0.1461628
2021-04-18 12:15:00 54.9 41.5 31.9 54.9 54.9 6.2 10.1 6.2 117.9 111.0 0.00 0.1368483
2021-04-18 12:20:00 55.1 40.8 31.7 55.1 55.1 7.2 10.6 6.6 133.5 137.2 0.00 0.1359064
2021-04-18 12:25:00 57.0 39.0 32.3 57.0 57.0 6.0 8.0 5.7 130.6 131.6 0.00 0.3196230
2021-04-18 12:30:00 56.8 39.2 32.2 56.8 56.8 5.6 10.6 6.0 142.1 137.2 0.00 0.1610399
2021-04-18 12:35:00 55.4 41.9 32.6 55.4 55.4 5.3 10.8 7.6 113.4 110.9 0.00 0.1337766
2021-04-18 12:40:00 55.8 40.6 32.2 55.8 55.8 7.8 12.4 8.0 111.2 134.5 0.00 0.1748738
2021-04-18 12:45:00 56.1 39.8 31.9 56.1 56.1 4.7 9.9 6.5 199.5 135.9 0.00 0.1451814
2021-04-18 12:50:00 56.9 39.7 32.6 56.9 56.9 6.7 8.7 6.2 167.5 123.3 0.00 0.1502925
2021-04-18 12:55:00 56.9 39.7 32.6 56.9 56.9 8.1 10.1 6.4 151.9 137.6 0.00 0.2034042
2021-04-18 13:00:00 56.7 39.2 32.2 56.7 56.7 11.5 11.5 7.3 115.7 130.4 0.00 0.1609413
2021-04-18 13:05:00 56.7 39.0 31.9 56.7 56.7 7.2 11.5 7.2 113.2 125.4 0.00 0.1806726
2021-04-18 13:10:00 57.1 39.0 32.4 57.1 57.1 6.3 9.0 6.7 138.0 140.0 0.00 0.2330608
2021-04-18 13:15:00 57.3 38.7 32.3 57.3 57.3 9.0 11.0 7.7 134.0 133.9 0.00 0.2056025
2021-04-18 13:20:00 57.3 38.8 32.5 57.3 57.3 7.2 11.0 7.5 105.2 131.4 0.00 0.1745524
2021-04-18 13:25:00 57.8 38.2 32.5 57.8 57.8 6.5 9.6 6.3 115.9 129.9 0.00 0.1661687
2021-04-18 13:30:00 57.2 38.8 32.3 57.2 57.2 9.6 12.8 8.3 100.8 119.4 0.00 0.1543937
2021-04-18 13:35:00 57.7 38.7 32.7 57.7 57.7 7.1 11.0 7.3 90.7 129.5 0.00 0.1914460
2021-04-18 13:40:00 57.3 39.0 32.5 57.3 57.3 9.0 12.6 7.9 119.0 115.8 0.00 0.1546360
2021-04-18 13:45:00 59.0 36.5 32.3 59.0 59.0 6.9 10.6 6.3 121.6 132.3 0.00 0.3097086
2021-04-18 13:50:00 58.6 37.9 33.0 58.6 58.6 3.1 10.1 7.1 138.4 128.4 0.00 0.2380315
2021-04-18 13:55:00 58.7 36.6 32.2 58.7 58.7 8.5 9.7 6.1 88.6 117.9 0.00 0.1721525
2021-04-18 14:00:00 58.8 37.1 32.6 58.8 58.8 8.7 10.8 6.5 97.4 133.9 0.00 0.1832678
2021-04-18 14:05:00 59.0 36.9 32.6 59.0 59.0 4.0 11.0 6.4 154.9 126.5 0.00 0.3046536
2021-04-18 14:10:00 58.7 38.8 33.7 58.7 58.7 4.6 10.3 7.2 113.3 123.0 0.00 0.2650425
2021-04-18 14:15:00 60.7 36.3 33.8 60.7 60.7 8.1 9.7 5.5 104.2 129.2 0.00 0.3173872
2021-04-18 14:20:00 59.6 38.2 34.0 59.6 59.6 8.0 10.5 6.4 133.6 115.5 0.00 0.2600909
2021-04-18 14:25:00 60.3 34.8 32.3 60.3 60.3 7.1 8.7 4.9 149.0 144.0 0.00 0.1634376
2021-04-18 14:30:00 60.4 35.7 33.1 60.4 60.4 6.7 10.1 5.3 136.8 135.3 0.00 0.2292939
2021-04-18 14:35:00 59.4 38.4 34.0 59.4 59.4 8.3 10.8 7.6 126.4 119.6 0.00 0.2312523
2021-04-18 14:40:00 59.7 39.0 34.6 59.7 59.7 4.7 11.2 6.1 113.4 120.4 0.00 0.2016021
2021-04-18 14:45:00 60.8 35.2 33.1 60.8 60.8 6.0 9.4 6.4 126.7 131.0 0.00 0.2505215
2021-04-18 14:50:00 61.2 36.2 34.2 61.2 61.2 6.0 9.2 5.6 168.7 130.3 0.00 0.1754123
2021-04-18 14:55:00 60.9 34.1 32.4 60.9 60.9 5.1 10.5 5.8 121.5 135.7 0.00 0.1602908
2021-04-18 15:00:00 60.9 34.2 32.4 60.9 60.9 9.4 9.9 6.7 126.7 138.7 0.00 0.2818671
2021-04-18 15:05:00 60.6 34.3 32.3 60.6 60.6 5.8 8.5 5.8 101.9 119.4 0.00 0.1397541
2021-04-18 15:10:00 61.2 34.3 32.8 61.2 61.2 6.2 10.3 6.7 100.4 132.0 0.00 0.2920347
2021-04-18 15:15:00 62.5 32.6 32.7 62.5 62.5 9.6 9.6 5.6 105.6 128.5 0.00 0.3260014
2021-04-18 15:20:00 61.8 32.8 32.2 61.8 61.8 3.7 8.3 5.7 145.5 123.7 0.00 0.1824046
2021-04-18 15:25:00 61.7 33.7 32.8 61.7 61.7 7.2 8.1 4.9 128.2 134.3 0.00 0.2702879
2021-04-18 15:30:00 61.8 33.1 32.5 61.8 61.8 4.0 9.9 4.7 87.1 140.1 0.00 0.1808680
2021-04-18 15:35:00 61.7 33.2 32.5 61.7 61.7 4.9 8.3 5.2 99.6 129.0 0.00 0.1410268
2021-04-18 15:40:00 60.8 35.0 33.0 60.8 60.8 4.0 12.6 6.5 71.4 95.6 0.00 0.0992386
2021-04-18 15:45:00 60.1 34.2 31.8 60.1 60.1 0.0 6.0 2.9 261.0 24.2 0.00 0.0898301
2021-04-18 15:50:00 59.9 37.3 33.7 59.9 59.9 3.8 4.6 1.4 31.8 295.7 0.00 0.0927204
2021-04-18 15:55:00 59.3 35.1 31.7 59.3 59.3 1.0 9.2 5.0 3.4 12.7 0.00 0.0874310
2021-04-18 16:00:00 59.5 36.9 33.1 59.5 59.5 2.6 6.5 3.0 44.2 9.4 0.00 0.0891617
2021-04-18 16:05:00 59.1 40.4 35.1 59.1 59.1 5.1 7.6 3.5 296.3 358.0 0.00 0.0875604
2021-04-18 16:10:00 59.7 36.9 33.3 59.7 59.7 5.6 8.0 4.3 9.4 12.3 0.00 0.0795725
2021-04-18 16:15:00 59.6 36.9 33.2 59.6 59.6 2.2 7.8 4.3 75.9 30.0 0.00 0.0747876
2021-04-18 16:20:00 60.2 35.1 32.5 60.2 60.2 2.4 8.7 3.6 48.7 87.9 0.00 0.0875208
2021-04-18 16:25:00 59.7 34.8 31.8 59.7 59.7 1.7 4.9 3.0 68.6 76.2 0.00 0.0841052
2021-04-18 16:30:00 60.0 35.6 32.7 60.0 60.0 4.0 4.0 0.7 224.3 159.3 0.00 0.0459764
2021-04-18 16:35:00 59.8 35.5 32.5 59.8 59.8 3.3 7.1 2.8 63.4 66.8 0.00 0.0522879
2021-04-18 16:40:00 59.4 35.9 32.3 59.4 59.4 5.1 6.3 3.6 17.2 61.5 0.00 0.0654574
2021-04-18 16:45:00 59.5 34.8 31.7 59.5 59.5 0.0 5.5 2.7 339.1 53.8 0.00 0.0901120
2021-04-18 16:50:00 60.3 36.1 33.3 60.3 60.3 2.6 3.8 2.1 24.8 45.9 0.00 0.0654943
2021-04-18 16:55:00 60.4 33.6 31.6 60.4 60.4 5.3 5.5 3.6 110.7 110.5 0.00 0.1335282
2021-04-18 17:00:00 60.3 34.1 31.9 60.3 60.3 1.0 4.6 1.4 332.4 79.3 0.00 0.1286716
2021-04-18 17:05:00 60.9 33.3 31.8 60.9 60.9 4.6 4.6 1.9 22.6 19.4 0.00 0.1673897
2021-04-18 17:10:00 60.2 34.2 31.8 60.2 60.2 4.9 6.3 4.2 45.6 46.3 0.00 0.0799883
2021-04-18 17:15:00 60.0 34.9 32.2 60.0 60.0 3.0 4.7 2.3 302.7 358.4 0.00 0.0848190
2021-04-18 17:20:00 60.9 34.2 32.5 60.9 60.9 1.2 5.6 2.4 85.5 75.1 0.00 0.1552089
2021-04-18 17:25:00 60.7 34.5 32.5 60.7 60.7 1.3 5.8 2.3 240.0 327.3 0.00 0.1303715
2021-04-18 17:30:00 61.2 32.7 31.6 61.2 61.2 0.8 6.0 2.2 152.3 139.9 0.00 0.1369756
2021-04-18 17:35:00 61.0 33.9 32.4 61.0 61.0 9.2 9.7 4.4 110.0 210.3 0.00 0.0848569
2021-04-18 17:40:00 60.6 34.5 32.4 60.6 60.6 5.8 9.2 4.4 111.8 106.1 0.00 0.0716590
2021-04-18 17:45:00 60.9 34.3 32.5 60.9 60.9 3.3 9.2 5.2 136.4 119.5 0.00 0.0986938
2021-04-18 17:50:00 61.2 33.3 32.1 61.2 61.2 6.5 8.3 5.0 178.5 121.9 0.00 0.1179747
2021-04-18 17:55:00 61.3 34.0 32.6 61.3 61.3 2.4 6.9 4.1 165.1 156.5 0.00 0.1154169
2021-04-18 18:00:00 62.2 32.6 32.4 62.2 62.2 3.7 7.1 3.5 148.2 129.8 0.00 0.1037730
2021-04-18 18:05:00 61.8 33.5 32.8 61.8 61.8 4.9 7.6 4.5 107.0 123.6 0.00 0.0790931
2021-04-18 18:10:00 61.1 33.7 32.3 61.1 61.1 3.7 7.1 4.6 142.3 118.7 0.00 0.0920818
2021-04-18 18:15:00 60.9 33.7 32.2 60.9 60.9 4.2 7.6 4.3 181.7 136.9 0.00 0.0818471
2021-04-18 18:20:00 61.1 35.8 33.8 61.1 61.1 1.9 5.6 3.0 246.1 179.0 0.00 0.0757714
2021-04-18 18:25:00 61.2 34.4 32.9 61.2 61.2 4.4 5.8 3.6 201.8 170.0 0.00 0.0593564
2021-04-18 18:30:00 60.2 35.5 32.8 60.2 60.2 2.1 5.3 2.6 118.7 181.1 0.00 0.0256963
2021-04-18 18:35:00 59.9 34.6 31.9 59.9 59.9 2.4 4.0 2.1 124.7 151.5 0.00 0.0336868
2021-04-18 18:40:00 60.0 34.4 31.8 60.0 60.0 4.2 5.6 3.6 195.6 141.1 0.00 0.0489326
2021-04-18 18:45:00 60.4 34.4 32.2 60.4 60.4 2.8 6.5 2.9 141.0 172.2 0.00 0.0442249
2021-04-18 18:50:00 60.5 34.1 32.0 60.5 60.5 3.1 4.6 2.0 108.1 136.3 0.00 0.0394915
2021-04-18 18:55:00 60.5 34.5 32.3 60.5 60.5 2.4 4.9 2.1 121.4 144.5 0.00 0.0341330
2021-04-18 19:00:00 60.4 34.5 32.2 60.4 60.4 3.8 5.1 2.7 139.3 141.4 0.00 0.0290041
2021-04-18 19:05:00 59.8 35.0 32.1 59.8 59.8 5.1 5.5 3.7 149.6 133.8 0.00 0.0236999
2021-04-18 19:10:00 59.5 35.7 32.3 59.5 59.5 4.2 5.3 3.6 153.9 134.3 0.00 0.0183650
2021-04-18 19:15:00 59.3 35.6 32.0 59.3 59.3 0.8 6.3 3.1 94.3 126.8 0.00 0.0136714
2021-04-18 19:20:00 59.2 36.3 32.4 59.2 59.2 4.9 6.3 3.2 130.5 130.6 0.00 0.0095647
2021-04-18 19:25:00 58.6 36.8 32.2 58.6 58.6 3.5 6.5 4.5 146.2 120.3 0.00 0.0059480
2021-04-18 19:30:00 58.4 37.4 32.5 58.4 58.4 5.1 6.5 4.5 104.1 113.8 0.00 0.0036412
2021-04-18 19:35:00 58.2 37.3 32.3 58.2 58.2 1.7 8.1 4.4 113.4 118.3 0.00 0.0023592
2021-04-18 19:40:00 58.1 37.4 32.2 58.1 58.1 3.5 4.9 2.5 95.2 117.3 0.00 0.0013907
2021-04-18 19:45:00 57.8 38.2 32.5 57.8 57.8 0.0 3.0 1.3 89.4 100.8 0.00 0.0007355
2021-04-18 19:50:00 57.6 38.2 32.3 57.6 57.6 3.5 4.0 2.5 95.0 93.7 0.00 0.0003859
2021-04-18 19:55:00 57.3 38.6 32.3 57.3 57.3 5.5 5.5 2.8 120.0 99.2 0.00 0.0001728
2021-04-18 20:00:00 57.2 38.8 32.3 57.2 57.2 6.2 7.2 4.1 110.1 101.2 0.00 0.0000543
2021-04-18 20:05:00 56.7 39.2 32.2 56.7 56.7 4.6 8.1 4.8 120.8 108.3 0.00 0.0000000
2021-04-18 20:10:00 56.8 39.7 32.5 56.8 56.8 5.8 6.7 3.8 89.1 91.8 0.00 0.0000000
2021-04-18 20:15:00 56.4 39.7 32.2 56.4 56.4 9.0 9.2 5.3 100.1 103.7 0.00 0.0000000
2021-04-18 20:20:00 56.3 39.9 32.2 56.3 56.3 4.4 7.8 5.0 112.7 109.1 0.00 0.0000000
2021-04-18 20:25:00 56.4 40.1 32.4 56.4 56.4 3.8 6.3 4.2 109.5 126.9 0.00 0.0000000
2021-04-18 20:30:00 56.2 40.2 32.3 56.2 56.2 7.1 7.8 5.4 114.7 118.2 0.00 0.0000000
2021-04-18 20:35:00 56.2 40.1 32.3 56.2 56.2 5.5 7.2 4.5 127.6 115.2 0.00 0.0000000
2021-04-18 20:40:00 56.3 40.0 32.3 56.3 56.3 1.0 7.8 3.6 135.2 125.8 0.00 0.0000000
2021-04-18 20:45:00 55.8 40.3 32.1 55.8 55.8 3.1 4.7 2.6 145.8 128.1 0.00 0.0000000
2021-04-18 20:50:00 55.9 40.6 32.3 55.9 55.9 0.0 4.4 1.7 149.8 139.6 0.00 0.0000000
2021-04-18 20:55:00 55.8 40.7 32.2 55.8 55.8 1.9 7.6 3.1 159.8 132.9 0.00 0.0000000
2021-04-18 21:00:00 55.7 40.8 32.2 55.7 55.7 2.6 5.6 3.0 98.7 122.0 0.00 0.0000000
2021-04-18 21:05:00 55.7 40.9 32.3 55.7 55.7 2.8 5.5 2.9 124.3 126.6 0.00 0.0000000
2021-04-18 21:10:00 55.9 40.9 32.4 55.9 55.9 4.6 4.6 2.0 112.6 138.1 0.00 0.0000000
2021-04-18 21:15:00 55.8 40.6 32.2 55.8 55.8 4.4 10.6 4.7 129.0 133.3 0.00 0.0000000
2021-04-18 21:20:00 55.7 41.3 32.5 55.7 55.7 3.3 6.3 4.1 109.6 132.7 0.00 0.0000000
2021-04-18 21:25:00 55.4 41.1 32.1 55.4 55.4 3.0 8.8 4.9 125.9 130.5 0.00 0.0000000
2021-04-18 21:30:00 55.3 41.3 32.2 55.3 55.3 3.3 7.8 3.9 109.9 129.8 0.00 0.0000000
2021-04-18 21:35:00 55.3 41.7 32.5 55.3 55.3 3.7 8.5 4.8 149.5 130.4 0.00 0.0000000
2021-04-18 21:40:00 55.2 41.8 32.4 55.2 55.2 6.0 9.9 5.9 159.7 125.9 0.00 0.0000000
2021-04-18 21:45:00 55.2 41.8 32.3 55.2 55.2 3.8 9.9 5.4 151.8 127.4 0.00 0.0000000
2021-04-18 21:50:00 55.1 41.8 32.3 55.1 55.1 5.3 9.0 4.4 106.5 124.8 0.00 0.0000000
2021-04-18 21:55:00 54.9 42.4 32.5 54.9 54.9 3.8 6.3 3.4 95.3 125.5 0.00 0.0000000

Data is courtesy of the NM Climate Center. DO NOT USE IN LEGAL PROCEEDINGS.